createdAt,value
2023-01-13T00:02:24.208Z,0.60
2023-01-13T00:06:08.751Z,0.80
2023-01-13T00:09:51.466Z,0.50
2023-01-13T00:13:35.439Z,0.50
2023-01-13T00:17:18.206Z,0.80
2023-01-13T00:21:01.408Z,0.50
2023-01-13T00:24:45.383Z,0.50
2023-01-13T00:28:28.049Z,0.50
2023-01-13T00:32:10.744Z,0.43
2023-01-13T00:35:58.370Z,0.47
2023-01-13T00:39:41.122Z,0.60
2023-01-13T00:43:26.720Z,0.60
2023-01-13T00:47:09.325Z,0.60
2023-01-13T00:50:56.351Z,0.40
2023-01-13T00:54:39.005Z,0.53
2023-01-13T00:58:21.658Z,0.50
2023-01-13T01:02:05.755Z,0.40
2023-01-13T01:05:48.413Z,0.50
2023-01-13T01:09:34.665Z,0.50
2023-01-13T01:13:17.443Z,0.50
2023-01-13T01:17:00.207Z,0.50
2023-01-13T01:20:44.180Z,0.53
2023-01-13T01:24:26.822Z,0.40
2023-01-13T01:28:09.670Z,0.50
2023-01-13T01:31:52.368Z,0.60
2023-01-13T01:35:35.138Z,0.53
2023-01-13T01:39:19.181Z,0.50
2023-01-13T01:43:19.282Z,0.47
2023-01-13T01:47:02.054Z,0.40
2023-01-13T01:50:44.859Z,0.50
2023-01-13T01:54:32.316Z,0.40
2023-01-13T01:58:20.945Z,0.60
2023-01-13T02:02:03.977Z,0.47
2023-01-13T02:05:46.738Z,0.50
2023-01-13T02:09:31.288Z,0.50
2023-01-13T02:13:14.417Z,0.40
2023-01-13T02:17:08.952Z,0.33
2023-01-13T02:21:15.732Z,0.30
2023-01-13T02:25:23.326Z,0.40
2023-01-13T02:29:31.131Z,0.60
2023-01-13T02:33:27.439Z,0.73
2023-01-13T02:37:15.184Z,0.30
2023-01-13T02:41:20.940Z,0.40
2023-01-13T02:45:07.084Z,0.30
2023-01-13T02:48:51.942Z,0.47
2023-01-13T02:52:37.273Z,0.40
2023-01-13T02:56:21.699Z,0.40
2023-01-13T03:00:05.606Z,0.50
2023-01-13T03:03:50.026Z,0.47
2023-01-13T03:07:45.529Z,0.30
2023-01-13T03:11:31.528Z,0.30
2023-01-13T03:15:18.872Z,0.30
2023-01-13T03:19:13.305Z,0.30
2023-01-13T03:23:01.320Z,0.30
2023-01-13T03:26:47.410Z,0.30
2023-01-13T03:30:33.290Z,0.20
2023-01-13T03:34:18.583Z,0.40
2023-01-13T03:38:06.899Z,0.30
2023-01-13T03:41:53.043Z,0.30
2023-01-13T03:45:37.338Z,0.33
2023-01-13T03:49:21.770Z,0.53
2023-01-13T03:53:08.690Z,0.37
2023-01-13T03:56:55.615Z,0.30
2023-01-13T04:00:41.389Z,0.20
2023-01-13T04:04:27.943Z,0.30
2023-01-13T04:08:17.999Z,0.27
2023-01-13T04:12:03.284Z,0.30
2023-01-13T04:15:47.919Z,0.40
2023-01-13T04:19:31.651Z,0.30
2023-01-13T04:23:16.397Z,0.30
2023-01-13T04:26:59.043Z,0.40
2023-01-13T04:30:42.068Z,0.30
2023-01-13T04:34:26.384Z,0.40
2023-01-13T04:38:12.994Z,0.27
2023-01-13T04:42:01.287Z,0.30
2023-01-13T04:45:44.610Z,0.40
2023-01-13T04:49:27.316Z,0.33
2023-01-13T04:53:10.004Z,0.37
2023-01-13T04:56:52.717Z,0.37
2023-01-13T05:00:36.803Z,0.40
2023-01-13T05:04:19.526Z,0.40
2023-01-13T05:08:02.211Z,0.40
2023-01-13T05:12:05.001Z,0.40
2023-01-13T05:16:07.184Z,0.30
2023-01-13T05:19:50.359Z,0.40
2023-01-13T05:23:50.463Z,0.40
2023-01-13T05:27:33.577Z,0.40
2023-01-13T05:31:17.681Z,0.33
2023-01-13T05:35:00.485Z,0.40
2023-01-13T05:38:43.410Z,0.40
2023-01-13T05:42:43.518Z,0.50
2023-01-13T05:46:27.648Z,0.50
2023-01-13T05:50:11.685Z,0.47
2023-01-13T05:53:54.607Z,0.50
2023-01-13T05:57:37.809Z,0.43
2023-01-13T06:01:20.614Z,0.50
2023-01-13T06:05:05.322Z,0.40
2023-01-13T06:08:48.038Z,0.30
2023-01-13T06:12:33.728Z,0.30
2023-01-13T06:16:16.579Z,0.30
2023-01-13T06:19:59.449Z,0.37
2023-01-13T06:23:43.487Z,0.37
2023-01-13T06:27:26.214Z,0.40
2023-01-13T06:31:10.622Z,0.30
2023-01-13T06:34:58.848Z,0.53
2023-01-13T06:38:46.250Z,0.83
2023-01-13T06:42:47.300Z,0.40
2023-01-13T06:46:30.054Z,0.40
2023-01-13T06:50:12.967Z,0.37
2023-01-13T06:53:57.104Z,0.50
2023-01-13T06:57:51.671Z,0.50
2023-01-13T07:01:34.492Z,0.50
2023-01-13T07:05:19.294Z,0.50
2023-01-13T07:09:04.635Z,0.60
2023-01-13T07:13:07.165Z,0.50
2023-01-13T07:16:50.421Z,0.70
2023-01-13T07:20:34.052Z,0.40
2023-01-13T07:24:18.296Z,0.60
2023-01-13T07:28:01.184Z,0.63
2023-01-13T07:31:43.959Z,0.70
2023-01-13T07:35:26.736Z,0.60
2023-01-13T07:39:09.432Z,0.60
2023-01-13T07:43:10.791Z,0.60
2023-01-13T07:46:53.511Z,0.60
2023-01-13T07:50:36.251Z,0.83
2023-01-13T07:54:19.421Z,0.60
2023-01-13T07:58:03.617Z,0.60
2023-01-13T08:01:46.451Z,0.70
2023-01-13T08:05:29.270Z,0.50
2023-01-13T08:09:12.107Z,0.63
2023-01-13T08:13:12.620Z,1.50
2023-01-13T08:16:56.690Z,0.70
2023-01-13T08:20:39.441Z,0.70
2023-01-13T08:24:22.188Z,0.50
2023-01-13T08:28:05.099Z,0.60
2023-01-13T08:31:47.799Z,0.40
2023-01-13T08:35:31.905Z,0.80
2023-01-13T08:39:14.620Z,0.70
2023-01-13T08:42:57.354Z,0.50
2023-01-13T08:46:40.073Z,0.57
2023-01-13T08:50:22.894Z,0.60
2023-01-13T08:54:07.057Z,0.70
2023-01-13T08:57:49.772Z,0.70
2023-01-13T09:01:32.905Z,0.47
2023-01-13T09:05:17.662Z,0.57
2023-01-13T09:09:02.380Z,0.60
2023-01-13T09:13:04.131Z,0.37
2023-01-13T09:16:46.858Z,0.60
2023-01-13T09:20:29.540Z,0.40
2023-01-13T09:24:12.250Z,0.60
2023-01-13T09:27:56.301Z,0.50
2023-01-13T09:31:39.128Z,0.50
2023-01-13T09:35:21.819Z,0.40
2023-01-13T09:39:05.659Z,0.50
2023-01-13T09:43:11.793Z,0.63
2023-01-13T09:47:00.162Z,0.40
2023-01-13T09:50:52.441Z,0.40
2023-01-13T09:54:41.529Z,0.50
2023-01-13T09:58:25.117Z,0.37
2023-01-13T10:02:30.315Z,0.40
2023-01-13T10:06:16.160Z,0.50
2023-01-13T10:10:00.759Z,0.53
2023-01-13T10:13:44.975Z,0.40
2023-01-13T10:17:34.344Z,0.40
2023-01-13T10:21:29.167Z,0.40
2023-01-13T10:25:32.490Z,0.30
2023-01-13T10:29:21.808Z,0.40
2023-01-13T10:33:12.507Z,0.40
2023-01-13T10:37:01.564Z,0.57
2023-01-13T10:40:50.343Z,0.40
2023-01-13T10:44:33.639Z,0.40
2023-01-13T10:48:17.967Z,0.30
2023-01-13T10:52:01.988Z,0.40
2023-01-13T10:55:59.746Z,0.40
2023-01-13T10:59:42.908Z,0.40
2023-01-13T11:03:27.934Z,0.30
2023-01-13T11:07:21.254Z,0.40
2023-01-13T11:11:04.280Z,0.30
2023-01-13T11:14:48.409Z,0.40
2023-01-13T11:18:41.175Z,0.50
2023-01-13T11:22:26.569Z,0.43
2023-01-13T11:26:14.230Z,0.30
2023-01-13T11:30:09.654Z,0.50
2023-01-13T11:33:57.498Z,0.40
2023-01-13T11:37:41.952Z,0.50
2023-01-13T11:41:43.421Z,0.30
2023-01-13T11:45:31.785Z,0.40
2023-01-13T11:49:23.325Z,0.43
2023-01-13T11:53:13.876Z,0.40
2023-01-13T11:57:19.268Z,0.40
2023-01-13T12:01:13.461Z,0.60
2023-01-13T12:05:02.703Z,0.50
2023-01-13T12:09:11.961Z,0.40
2023-01-13T12:13:00.309Z,0.40
2023-01-13T12:16:48.832Z,0.40
2023-01-13T12:20:38.280Z,0.50
2023-01-13T12:24:27.688Z,0.50
2023-01-13T12:28:14.150Z,0.50
2023-01-13T12:31:57.060Z,0.50
2023-01-13T12:35:43.384Z,0.90
2023-01-13T12:39:38.809Z,0.37
2023-01-13T12:43:40.099Z,0.40
2023-01-13T12:47:35.173Z,0.50
2023-01-13T12:51:27.680Z,0.50
2023-01-13T12:55:15.467Z,0.50
2023-01-13T12:59:40.005Z,0.60
2023-01-13T13:03:32.579Z,0.60
2023-01-13T13:07:19.807Z,0.50
2023-01-13T13:11:38.007Z,0.50
2023-01-13T13:15:22.027Z,0.70
2023-01-13T13:19:43.405Z,0.70
2023-01-13T13:23:48.234Z,0.50
2023-01-13T13:27:41.516Z,0.50
2023-01-13T13:31:39.082Z,0.63
2023-01-13T13:35:42.019Z,0.60
2023-01-13T13:39:45.824Z,0.87
2023-01-13T13:43:46.745Z,0.60
2023-01-13T13:47:36.293Z,0.43
2023-01-13T13:51:26.453Z,0.53
2023-01-13T13:55:18.491Z,0.50
2023-01-13T13:59:01.266Z,0.50
2023-01-13T14:02:49.313Z,0.50
2023-01-13T14:06:32.835Z,0.30
2023-01-13T14:10:20.668Z,0.33
2023-01-13T14:14:05.619Z,0.33
2023-01-13T14:17:49.268Z,0.30
2023-01-13T14:21:33.021Z,0.47
2023-01-13T14:25:38.259Z,0.30
2023-01-13T14:29:22.847Z,0.50
2023-01-13T14:33:06.352Z,0.30
2023-01-13T14:36:51.229Z,0.50
2023-01-13T14:40:47.951Z,0.40
2023-01-13T14:44:32.335Z,0.30
2023-01-13T14:48:15.126Z,0.40
2023-01-13T14:52:08.786Z,0.50
2023-01-13T14:55:52.957Z,0.60
2023-01-13T14:59:55.402Z,0.50
2023-01-13T15:03:42.307Z,0.47
2023-01-13T15:07:27.414Z,0.60
2023-01-13T15:11:21.846Z,0.60
2023-01-13T15:15:05.963Z,0.80
2023-01-13T15:18:49.359Z,0.60
2023-01-13T15:22:32.107Z,0.50
2023-01-13T15:26:20.253Z,0.53
2023-01-13T15:30:02.996Z,0.50
2023-01-13T15:33:45.707Z,0.60
2023-01-13T15:37:28.523Z,0.80
2023-01-13T15:41:13.498Z,0.50
2023-01-13T15:45:15.287Z,1.00
2023-01-13T15:48:58.567Z,0.70
2023-01-13T15:52:41.375Z,0.90
2023-01-13T15:56:26.553Z,0.70
2023-01-13T16:00:16.181Z,0.70
2023-01-13T16:04:01.405Z,0.97
2023-01-13T16:07:44.085Z,1.10
2023-01-13T16:11:26.808Z,0.80
2023-01-13T16:15:13.750Z,1.20
2023-01-13T16:18:57.040Z,1.77
2023-01-13T16:22:39.757Z,1.70
2023-01-13T16:26:24.465Z,1.60
2023-01-13T16:30:08.693Z,1.50
2023-01-13T16:33:52.978Z,1.67
2023-01-13T16:37:35.687Z,1.80
2023-01-13T16:41:19.291Z,1.70
2023-01-13T16:45:08.351Z,2.30
2023-01-13T16:48:53.421Z,2.00
2023-01-13T16:52:36.090Z,1.50
2023-01-13T16:56:27.122Z,1.30
2023-01-13T17:00:12.522Z,1.50
2023-01-13T17:03:57.014Z,1.70
2023-01-13T17:07:39.823Z,1.40
2023-01-13T17:11:22.690Z,1.20
2023-01-13T17:15:06.180Z,1.80
2023-01-13T17:18:49.451Z,1.60
2023-01-13T17:22:33.529Z,1.47
2023-01-13T17:26:32.083Z,1.40
2023-01-13T17:30:15.233Z,1.63
2023-01-13T17:33:58.044Z,1.77
2023-01-13T17:37:42.095Z,1.20
2023-01-13T17:41:25.398Z,1.70
2023-01-13T17:45:11.310Z,1.43
2023-01-13T17:48:54.097Z,1.70
2023-01-13T17:52:36.756Z,1.43
2023-01-13T17:56:20.920Z,1.33
2023-01-13T18:00:04.567Z,1.17
2023-01-13T18:03:47.381Z,1.30
2023-01-13T18:07:30.103Z,1.20
2023-01-13T18:11:12.867Z,0.97
2023-01-13T18:14:56.888Z,1.30
2023-01-13T18:18:41.684Z,1.20
2023-01-13T18:22:42.091Z,1.40
2023-01-13T18:26:53.938Z,1.60
2023-01-13T18:30:38.077Z,1.50
2023-01-13T18:34:22.718Z,1.27
2023-01-13T18:38:05.480Z,1.50
2023-01-13T18:42:05.786Z,2.03
2023-01-13T18:45:52.306Z,1.70
2023-01-13T18:49:35.070Z,1.67
2023-01-13T18:53:17.861Z,1.10
2023-01-13T18:57:02.744Z,1.07
2023-01-13T19:00:46.606Z,1.07
2023-01-13T19:04:32.489Z,0.90
2023-01-13T19:08:15.655Z,0.80
2023-01-13T19:11:59.144Z,0.70
2023-01-13T19:15:41.844Z,0.80
2023-01-13T19:19:24.537Z,0.83
2023-01-13T19:23:08.523Z,0.97
2023-01-13T19:26:51.224Z,0.90
2023-01-13T19:30:33.919Z,0.90
2023-01-13T19:34:16.854Z,1.03
2023-01-13T19:37:59.504Z,2.90
2023-01-13T19:42:01.085Z,1.37
2023-01-13T19:45:44.884Z,0.70
2023-01-13T19:49:27.515Z,0.80
2023-01-13T19:57:10.339Z,0.70
2023-01-13T20:00:53.831Z,0.77
2023-01-13T20:04:38.508Z,0.90
2023-01-13T20:08:21.790Z,0.80
2023-01-13T20:12:06.973Z,0.60
2023-01-13T20:15:50.970Z,0.90
2023-01-13T20:19:33.801Z,0.90
2023-01-13T20:23:16.491Z,0.80
2023-01-13T20:26:59.254Z,0.83
2023-01-13T20:30:41.937Z,0.60
2023-01-13T20:34:26.014Z,0.63
2023-01-13T20:38:08.798Z,0.77
2023-01-13T20:42:09.043Z,0.60
2023-01-13T20:45:51.687Z,0.47
2023-01-13T20:49:36.893Z,0.90
2023-01-13T20:53:19.533Z,0.93
2023-01-13T20:57:02.207Z,1.00
2023-01-13T21:00:44.918Z,1.40
2023-01-13T21:04:28.763Z,0.90
2023-01-13T21:08:12.951Z,0.70
2023-01-13T21:12:13.071Z,0.77
2023-01-13T21:15:56.315Z,0.70
2023-01-13T21:19:38.984Z,0.73
2023-01-13T21:23:22.969Z,0.87
2023-01-13T21:27:08.720Z,0.90
2023-01-13T21:30:52.725Z,1.20
2023-01-13T21:34:35.426Z,0.70
2023-01-13T21:38:18.076Z,1.00
2023-01-13T21:42:19.469Z,0.80
2023-01-13T21:46:19.948Z,0.77
2023-01-13T21:50:02.662Z,0.70
2023-01-13T21:53:45.337Z,0.80
2023-01-13T21:57:29.347Z,0.70
2023-01-13T22:01:12.275Z,0.50
2023-01-13T22:04:55.073Z,0.70
2023-01-13T22:08:37.776Z,0.50
2023-01-13T22:12:23.335Z,0.63
2023-01-13T22:16:09.173Z,0.80
2023-01-13T22:19:53.773Z,0.80
2023-01-13T22:23:36.426Z,0.70
2023-01-13T22:27:22.153Z,0.70
2023-01-13T22:31:10.942Z,0.40
2023-01-13T22:34:53.626Z,0.67
2023-01-13T22:38:36.621Z,1.00
2023-01-13T22:42:19.467Z,0.97
2023-01-13T22:46:04.604Z,0.70
2023-01-13T22:49:50.131Z,0.60
2023-01-13T22:53:35.492Z,0.70
2023-01-13T22:57:19.018Z,0.50
2023-01-13T23:01:10.110Z,0.70
2023-01-13T23:04:54.261Z,0.57
2023-01-13T23:08:37.343Z,0.43
2023-01-13T23:12:20.114Z,0.60
2023-01-13T23:16:06.981Z,0.50
2023-01-13T23:19:49.823Z,0.50
2023-01-13T23:23:34.873Z,2.13
2023-01-13T23:27:17.722Z,0.70
2023-01-13T23:31:00.649Z,0.70
2023-01-13T23:34:43.341Z,0.60
2023-01-13T23:38:26.116Z,0.83
2023-01-13T23:42:10.149Z,0.70
2023-01-13T23:45:53.688Z,0.60
2023-01-13T23:49:36.421Z,0.50
2023-01-13T23:53:19.052Z,0.50
2023-01-13T23:57:01.754Z,0.60
